Time;durP1;ratioP1;P1;durP2;ratioP2;P2;SDS_P1;SDS_P2;PMS_P1;PMS_P2;Temp;Humidity;BMP_temperature;BMP_pressure;BME280_temperature;BME280_humidity;BME280_pressure;Samples;Min_cycle;Max_cycle;Signal;HPM_P1;HPM_P2
2022/06/23 00:01:42;;;;;;;;;;;16.90;98.70;;;;;;4929050;29;19926;-47
2022/06/23 00:04:15;;;;;;;;;;;16.90;98.50;;;;;;4926370;29;20465;-49
2022/06/23 00:06:54;;;;;;;;;;;16.90;98.30;;;;;;4934240;29;19941;-48
2022/06/23 00:09:38;;;;;;;;;;;16.80;98.70;;;;;;4933202;29;20361;-46
2022/06/23 00:12:19;;;;;;;;;;;16.80;98.50;;;;;;4926908;29;19918;-50
2022/06/23 00:14:53;;;;;;;;;;;16.70;98.10;;;;;;4931921;29;19926;-50
2022/06/23 00:17:24;;;;;;;;;;;16.60;98.20;;;;;;4928452;29;19973;-49
2022/06/23 00:19:50;;;;;;;;;;;16.50;99.50;;;;;;4931463;29;20465;-51
2022/06/23 00:22:17;;;;;;;;;;;16.50;99.90;;;;;;4935544;29;19931;-50
2022/06/23 00:24:45;;;;;;;;;;;16.50;99.50;;;;;;4935866;29;19958;-49
2022/06/23 00:27:17;;;;;;;;;;;16.40;98.70;;;;;;4925868;29;20403;-46
2022/06/23 00:29:47;;;;;;;;;;;16.40;99.90;;;;;;4933979;29;19929;-50
2022/06/23 00:32:13;;;;;;;;;;;16.40;99.90;;;;;;4931258;29;20009;-47
2022/06/23 00:34:55;;;;;;;;;;;16.30;99.90;;;;;;4934095;29;20463;-47
2022/06/23 00:37:21;;;;;;;;;;;16.40;99.90;;;;;;4935301;29;19931;-49
2022/06/23 00:39:57;;;;;;;;;;;16.30;99.90;;;;;;4934930;29;20299;-49
2022/06/23 00:42:33;;;;;;;;;;;16.20;99.90;;;;;;4933529;29;19922;-47
2022/06/23 00:45:05;;;;;;;;;;;16.20;99.90;;;;;;4935659;29;19930;-48
2022/06/23 00:47:43;;;;;;;;;;;16.20;99.90;;;;;;4932503;29;19922;-47
2022/06/23 00:50:11;;;;;;;;;;;16.10;99.90;;;;;;4937264;29;20303;-48
2022/06/23 00:52:45;;;;;;;;;;;16.10;99.90;;;;;;4935045;29;19930;-53
2022/06/23 00:55:20;;;;;;;;;;;16.10;99.90;;;;;;4935982;29;19919;-49
2022/06/23 00:57:49;;;;;;;;;;;16.10;99.90;;;;;;4930788;29;20005;-47
2022/06/23 01:00:21;;;;;;;;;;;16.10;99.90;;;;;;4915847;29;19919;-49
2022/06/23 01:02:58;;;;;;;;;;;16.10;99.90;;;;;;4932057;29;20411;-49
2022/06/23 01:05:33;;;;;;;;;;;16.00;99.90;;;;;;4913383;29;19926;-49
2022/06/23 01:07:58;;;;;;;;;;;16.00;99.90;;;;;;4919699;29;19974;-49
2022/06/23 01:10:53;;;;;;;;;;;15.90;99.90;;;;;;4933249;29;19918;-48
2022/06/23 01:13:28;;;;;;;;;;;15.90;99.90;;;;;;4910742;29;19988;-47
2022/06/23 01:15:56;;;;;;;;;;;15.90;99.90;;;;;;4929401;29;19973;-46
2022/06/23 01:18:40;;;;;;;;;;;15.90;99.90;;;;;;4931962;29;20029;-45
2022/06/23 01:21:07;;;;;;;;;;;15.90;99.90;;;;;;4934101;29;19926;-52
2022/06/23 01:23:51;;;;;;;;;;;15.80;99.90;;;;;;4921156;29;20013;-45
2022/06/23 01:26:17;;;;;;;;;;;15.80;99.90;;;;;;4934378;29;19949;-47
2022/06/23 01:28:43;;;;;;;;;;;15.80;99.90;;;;;;4931791;29;19926;-53
2022/06/23 01:31:14;;;;;;;;;;;15.70;99.90;;;;;;4931705;29;19973;-50
2022/06/23 01:33:51;;;;;;;;;;;15.70;99.90;;;;;;4931790;29;19922;-50
2022/06/23 01:36:26;;;;;;;;;;;15.70;99.90;;;;;;4937056;29;19919;-47
2022/06/23 01:38:58;;;;;;;;;;;15.70;99.90;;;;;;4932750;29;19929;-50
2022/06/23 01:41:35;;;;;;;;;;;15.60;99.90;;;;;;4931963;29;20380;-49
2022/06/23 01:44:06;;;;;;;;;;;15.60;99.90;;;;;;4931602;29;19976;-46
2022/06/23 01:46:36;;;;;;;;;;;15.60;99.90;;;;;;4934670;29;19922;-50
2022/06/23 01:49:28;;;;;;;;;;;15.60;99.90;;;;;;4934781;29;20309;-50
2022/06/23 01:51:55;;;;;;;;;;;15.50;99.90;;;;;;4923176;29;19962;-47
2022/06/23 01:54:20;;;;;;;;;;;15.50;99.90;;;;;;4936223;29;20013;-48
2022/06/23 01:56:52;;;;;;;;;;;15.50;99.90;;;;;;4937383;29;20012;-48
2022/06/23 01:59:20;;;;;;;;;;;15.50;99.90;;;;;;4920168;29;19922;-48
2022/06/23 02:01:50;;;;;;;;;;;15.40;99.90;;;;;;4935488;29;19923;-49
2022/06/23 02:04:21;;;;;;;;;;;15.40;99.90;;;;;;4933315;29;19929;-50
2022/06/23 02:06:52;;;;;;;;;;;15.40;99.90;;;;;;4936589;29;19930;-50
2022/06/23 02:09:38;;;;;;;;;;;15.30;99.90;;;;;;4931966;29;19923;-49
2022/06/23 02:12:11;;;;;;;;;;;15.30;99.90;;;;;;4935573;29;19919;-48
2022/06/23 02:14:51;;;;;;;;;;;15.30;99.90;;;;;;4934964;29;19925;-50
2022/06/23 02:17:29;;;;;;;;;;;15.30;99.90;;;;;;4930220;29;19923;-47
2022/06/23 02:19:56;;;;;;;;;;;15.30;99.90;;;;;;4935831;29;20021;-45
2022/06/23 02:22:28;;;;;;;;;;;15.20;99.90;;;;;;4931879;29;20426;-49
2022/06/23 02:25:04;;;;;;;;;;;15.30;99.90;;;;;;4941082;29;19931;-46
2022/06/23 02:27:33;;;;;;;;;;;15.20;99.90;;;;;;4932814;29;19923;-44
2022/06/23 02:30:04;;;;;;;;;;;15.20;99.90;;;;;;4935628;29;19918;-47
2022/06/23 02:32:48;;;;;;;;;;;15.20;99.90;;;;;;4931983;29;20001;-48
2022/06/23 02:35:18;;;;;;;;;;;15.20;99.90;;;;;;4937381;29;20470;-48
2022/06/23 02:37:48;;;;;;;;;;;15.10;99.90;;;;;;4935848;29;19970;-49
2022/06/23 02:40:19;;;;;;;;;;;15.10;99.90;;;;;;4938646;29;19922;-47
2022/06/23 02:42:49;;;;;;;;;;;15.10;99.90;;;;;;4938492;29;20022;-45
2022/06/23 02:45:21;;;;;;;;;;;15.10;99.90;;;;;;4924340;29;19969;-50
2022/06/23 02:47:46;;;;;;;;;;;15.10;99.90;;;;;;4936959;29;20274;-48
2022/06/23 02:50:12;;;;;;;;;;;15.10;99.90;;;;;;4936130;29;19918;-47
2022/06/23 02:52:56;;;;;;;;;;;15.00;99.90;;;;;;4933376;29;19923;-52
2022/06/23 02:55:37;;;;;;;;;;;15.00;99.90;;;;;;4936203;29;19978;-51
2022/06/23 02:58:21;;;;;;;;;;;15.00;99.90;;;;;;4922706;29;20380;-49
2022/06/23 03:00:56;;;;;;;;;;;14.90;99.90;;;;;;4935288;29;19945;-47
2022/06/23 03:03:41;;;;;;;;;;;14.90;99.90;;;;;;4933547;29;19945;-50
2022/06/23 03:06:15;;;;;;;;;;;14.90;99.90;;;;;;4932776;29;20281;-49
2022/06/23 03:08:47;;;;;;;;;;;14.80;99.90;;;;;;4937737;29;19922;-49
2022/06/23 03:11:12;;;;;;;;;;;14.80;99.90;;;;;;4936190;29;19937;-47
2022/06/23 03:13:50;;;;;;;;;;;14.80;99.90;;;;;;4937565;29;20009;-49
2022/06/23 03:16:22;;;;;;;;;;;14.80;99.90;;;;;;4938756;29;19919;-50
2022/06/23 03:18:57;;;;;;;;;;;14.80;99.90;;;;;;4932525;29;19942;-49
2022/06/23 03:21:30;;;;;;;;;;;14.80;99.90;;;;;;4932725;29;20052;-46
2022/06/23 03:24:11;;;;;;;;;;;14.70;99.90;;;;;;4934393;29;20081;-48
2022/06/23 03:26:36;;;;;;;;;;;14.70;99.90;;;;;;4937301;29;19923;-47
2022/06/23 03:29:05;;;;;;;;;;;14.70;99.90;;;;;;4934133;29;20292;-48
2022/06/23 03:31:42;;;;;;;;;;;14.70;99.90;;;;;;4930502;29;19993;-50
2022/06/23 03:34:37;;;;;;;;;;;14.70;99.90;;;;;;4912697;29;19918;-48
2022/06/23 03:37:07;;;;;;;;;;;14.70;99.90;;;;;;4915662;29;20371;-47
2022/06/23 03:42:24;;;;;;;;;;;14.60;99.90;;;;;;4930580;29;19926;-48
2022/06/23 03:44:49;;;;;;;;;;;14.60;99.90;;;;;;4933705;29;20000;-46
2022/06/23 03:47:20;;;;;;;;;;;14.60;99.90;;;;;;4933117;29;20390;-47
2022/06/23 03:50:04;;;;;;;;;;;14.60;99.90;;;;;;4935959;29;20293;-49
2022/06/23 03:52:32;;;;;;;;;;;14.60;99.90;;;;;;4930570;29;19923;-47
2022/06/23 03:55:16;;;;;;;;;;;14.60;99.90;;;;;;4938179;29;19919;-51
2022/06/23 03:58:02;;;;;;;;;;;14.60;99.90;;;;;;4937385;29;19922;-45
2022/06/23 04:00:40;;;;;;;;;;;14.60;99.90;;;;;;4933322;29;19929;-46
2022/06/23 04:03:22;;;;;;;;;;;14.60;99.90;;;;;;4931776;29;19951;-45
2022/06/23 04:05:54;;;;;;;;;;;14.60;99.90;;;;;;4936497;29;19922;-47
2022/06/23 04:08:20;;;;;;;;;;;14.60;99.90;;;;;;4931915;29;20436;-47
2022/06/23 04:10:45;;;;;;;;;;;14.70;99.90;;;;;;4931735;29;19959;-50
2022/06/23 04:13:30;;;;;;;;;;;14.70;99.90;;;;;;4935603;29;19938;-50
2022/06/23 04:16:00;;;;;;;;;;;14.70;99.90;;;;;;4933317;29;19922;-45
2022/06/23 04:18:28;;;;;;;;;;;14.80;99.90;;;;;;4932079;29;19937;-50
2022/06/23 04:21:03;;;;;;;;;;;14.80;99.90;;;;;;4932477;29;20375;-50
2022/06/23 04:23:36;;;;;;;;;;;14.80;99.90;;;;;;4934476;29;20495;-46
2022/06/23 04:26:17;;;;;;;;;;;14.80;99.90;;;;;;4913064;29;19941;-50
2022/06/23 04:28:49;;;;;;;;;;;14.90;99.90;;;;;;4931344;29;20395;-46
2022/06/23 04:31:35;;;;;;;;;;;14.90;99.90;;;;;;4936106;29;19922;-48
2022/06/23 04:34:01;;;;;;;;;;;15.00;99.90;;;;;;4918741;29;19930;-45
2022/06/23 04:36:29;;;;;;;;;;;15.00;99.90;;;;;;4930027;29;19929;-50
2022/06/23 04:39:06;;;;;;;;;;;15.10;99.90;;;;;;4931460;29;20062;-47
2022/06/23 04:41:37;;;;;;;;;;;15.10;99.90;;;;;;4929800;29;20372;-49
2022/06/23 04:44:06;;;;;;;;;;;15.20;99.90;;;;;;4929034;29;19986;-51
2022/06/23 04:46:35;;;;;;;;;;;15.20;99.90;;;;;;4935179;29;19919;-47
2022/06/23 04:49:07;;;;;;;;;;;15.20;99.90;;;;;;4914530;29;20280;-48
2022/06/23 04:51:37;;;;;;;;;;;15.30;99.90;;;;;;4936494;29;19918;-49
2022/06/23 04:54:09;;;;;;;;;;;15.30;99.90;;;;;;4931428;29;19990;-45
2022/06/23 04:56:39;;;;;;;;;;;15.40;99.90;;;;;;4930343;29;19974;-48
2022/06/23 04:59:13;;;;;;;;;;;15.40;99.90;;;;;;4930801;29;19981;-46
2022/06/23 05:01:40;;;;;;;;;;;15.50;99.90;;;;;;4932352;29;19919;-50
2022/06/23 05:04:11;;;;;;;;;;;15.50;99.90;;;;;;4932768;29;19923;-51
2022/06/23 05:06:39;;;;;;;;;;;15.60;99.90;;;;;;4936174;29;19922;-51
2022/06/23 05:09:10;;;;;;;;;;;15.70;99.90;;;;;;4930608;29;20356;-47
2022/06/23 05:11:41;;;;;;;;;;;15.70;99.90;;;;;;4929738;29;19929;-49
2022/06/23 05:14:14;;;;;;;;;;;15.90;99.90;;;;;;4938843;29;20368;-51
2022/06/23 05:16:42;;;;;;;;;;;15.90;99.90;;;;;;4928635;29;19929;-45
2022/06/23 05:19:09;;;;;;;;;;;16.00;99.90;;;;;;4930793;29;19934;-49
2022/06/23 05:21:55;;;;;;;;;;;16.10;99.90;;;;;;4929673;29;20357;-51
2022/06/23 05:24:28;;;;;;;;;;;16.20;99.90;;;;;;4929971;29;19933;-50
2022/06/23 05:26:59;;;;;;;;;;;16.30;99.90;;;;;;4918468;29;19922;-49
2022/06/23 05:29:44;;;;;;;;;;;16.40;99.90;;;;;;4940451;29;20006;-48
2022/06/23 05:32:19;;;;;;;;;;;16.50;99.90;;;;;;4935028;29;19922;-46
2022/06/23 05:34:50;;;;;;;;;;;16.60;99.90;;;;;;4932464;29;19923;-48
2022/06/23 05:37:39;;;;;;;;;;;16.70;99.90;;;;;;4937741;29;19931;-50
2022/06/23 05:40:07;;;;;;;;;;;16.80;99.90;;;;;;4921348;29;20797;-50
2022/06/23 05:42:33;;;;;;;;;;;16.90;99.90;;;;;;4936405;29;19919;-50
2022/06/23 05:45:01;;;;;;;;;;;17.00;99.90;;;;;;4933983;29;19925;-49
2022/06/23 05:47:28;;;;;;;;;;;17.10;99.90;;;;;;4933070;29;19927;-45
2022/06/23 05:49:55;;;;;;;;;;;17.20;99.90;;;;;;4936195;29;20043;-48
2022/06/23 05:52:24;;;;;;;;;;;17.30;99.90;;;;;;4930093;29;20010;-44
2022/06/23 05:54:59;;;;;;;;;;;17.40;99.90;;;;;;4929630;29;19918;-45
2022/06/23 05:57:30;;;;;;;;;;;17.40;99.90;;;;;;4932038;29;20026;-46
2022/06/23 05:59:59;;;;;;;;;;;17.50;99.90;;;;;;4929783;29;19918;-48
2022/06/23 06:02:39;;;;;;;;;;;17.70;99.90;;;;;;4932676;29;19930;-50
2022/06/23 06:05:05;;;;;;;;;;;17.80;99.90;;;;;;4931653;29;19923;-50
2022/06/23 06:07:35;;;;;;;;;;;17.90;99.90;;;;;;4931605;29;20005;-50
2022/06/23 06:10:03;;;;;;;;;;;18.00;98.10;;;;;;4931101;29;19934;-48
2022/06/23 06:12:34;;;;;;;;;;;18.10;98.30;;;;;;4934233;29;19927;-47
2022/06/23 06:15:07;;;;;;;;;;;18.20;95.40;;;;;;4912106;29;19957;-45
2022/06/23 06:17:33;;;;;;;;;;;18.40;94.90;;;;;;4925410;29;19930;-49
2022/06/23 06:20:01;;;;;;;;;;;18.70;93.80;;;;;;4932815;29;20355;-51
2022/06/23 06:22:39;;;;;;;;;;;18.90;94.20;;;;;;4938223;29;20028;-51
2022/06/23 06:25:05;;;;;;;;;;;19.10;94.90;;;;;;4920132;29;19926;-49
2022/06/23 06:27:31;;;;;;;;;;;19.20;93.20;;;;;;4934743;29;20352;-49
2022/06/23 06:29:57;;;;;;;;;;;19.40;92.70;;;;;;4942237;29;20040;-50
2022/06/23 06:32:33;;;;;;;;;;;19.60;92.50;;;;;;4944318;29;20351;-49
2022/06/23 06:35:11;;;;;;;;;;;19.70;92.30;;;;;;4933973;29;19925;-46
2022/06/23 06:37:39;;;;;;;;;;;19.80;92.20;;;;;;4927998;29;20197;-51
2022/06/23 06:40:05;;;;;;;;;;;19.90;91.90;;;;;;4930344;29;19922;-49
2022/06/23 06:42:34;;;;;;;;;;;19.90;92.10;;;;;;4935135;29;19942;-48
2022/06/23 06:45:02;;;;;;;;;;;20.00;92.10;;;;;;4933248;29;19941;-44
2022/06/23 06:47:32;;;;;;;;;;;20.00;91.50;;;;;;4932198;29;19930;-48
2022/06/23 06:50:00;;;;;;;;;;;20.10;91.80;;;;;;4930816;29;19923;-45
2022/06/23 06:52:26;;;;;;;;;;;20.10;91.30;;;;;;4932336;29;19923;-44
2022/06/23 06:54:56;;;;;;;;;;;20.20;89.80;;;;;;4923231;29;19962;-47
2022/06/23 06:57:45;;;;;;;;;;;20.30;90.10;;;;;;4929892;29;19983;-50
2022/06/23 07:00:25;;;;;;;;;;;20.40;90.50;;;;;;4920320;29;19922;-50
2022/06/23 07:02:54;;;;;;;;;;;20.60;90.60;;;;;;4930164;29;20292;-48
2022/06/23 07:05:28;;;;;;;;;;;20.60;90.20;;;;;;4932933;29;20411;-51
2022/06/23 07:07:56;;;;;;;;;;;20.70;90.20;;;;;;4938877;29;20256;-50
2022/06/23 07:10:25;;;;;;;;;;;20.80;89.70;;;;;;4920576;29;19970;-45
2022/06/23 07:12:53;;;;;;;;;;;20.90;89.20;;;;;;4929532;29;19934;-49
2022/06/23 07:15:19;;;;;;;;;;;21.00;89.00;;;;;;4938579;29;19918;-47
2022/06/23 07:17:46;;;;;;;;;;;21.20;87.30;;;;;;4933773;29;19935;-45
2022/06/23 07:20:14;;;;;;;;;;;21.30;88.10;;;;;;4937524;29;19918;-47
2022/06/23 07:22:50;;;;;;;;;;;21.50;88.60;;;;;;4939567;29;19966;-45
2022/06/23 07:25:31;;;;;;;;;;;21.60;87.60;;;;;;4925499;29;20014;-46
2022/06/23 07:28:00;;;;;;;;;;;21.70;88.90;;;;;;4932819;29;20363;-50
2022/06/23 07:30:30;;;;;;;;;;;21.70;87.00;;;;;;4934347;29;19929;-47
2022/06/23 07:32:57;;;;;;;;;;;21.80;84.50;;;;;;4932420;29;20001;-49
2022/06/23 07:35:29;;;;;;;;;;;21.90;85.60;;;;;;4930532;29;20021;-49
2022/06/23 07:38:24;;;;;;;;;;;21.90;85.70;;;;;;4931074;29;19929;-49
2022/06/23 07:41:02;;;;;;;;;;;22.10;85.80;;;;;;4915145;29;19928;-50
2022/06/23 07:43:33;;;;;;;;;;;22.20;86.10;;;;;;4931233;29;19927;-48
2022/06/23 07:46:00;;;;;;;;;;;22.30;85.10;;;;;;4933952;29;20351;-49
2022/06/23 07:48:28;;;;;;;;;;;22.30;80.90;;;;;;4940948;29;20347;-48
2022/06/23 07:50:55;;;;;;;;;;;22.40;83.40;;;;;;4933974;29;19926;-43
2022/06/23 07:53:22;;;;;;;;;;;22.40;83.30;;;;;;4934119;29;20014;-49
2022/06/23 07:55:48;;;;;;;;;;;22.50;84.40;;;;;;4924592;29;20600;-46
2022/06/23 07:58:25;;;;;;;;;;;22.60;84.00;;;;;;4932792;29;19927;-49
2022/06/23 08:00:53;;;;;;;;;;;22.70;82.00;;;;;;4938705;29;20331;-47
2022/06/23 08:03:23;;;;;;;;;;;22.80;81.70;;;;;;4925847;29;19926;-47
2022/06/23 08:05:51;;;;;;;;;;;22.90;79.10;;;;;;4920792;29;20624;-50
2022/06/23 08:08:19;;;;;;;;;;;23.00;79.80;;;;;;4924160;29;20259;-49
2022/06/23 08:10:46;;;;;;;;;;;23.10;79.50;;;;;;4922539;29;19978;-47
2022/06/23 08:13:14;;;;;;;;;;;23.20;78.00;;;;;;4935731;29;19946;-45
2022/06/23 08:18:49;;;;;;;;;;;23.30;76.70;;;;;;4930949;29;19923;-48
2022/06/23 08:21:26;;;;;;;;;;;23.40;78.10;;;;;;4922944;29;19988;-49
2022/06/23 08:24:10;;;;;;;;;;;23.50;75.80;;;;;;4929299;29;19922;-48
2022/06/23 08:26:37;;;;;;;;;;;23.50;75.40;;;;;;4927800;29;19923;-50
2022/06/23 08:29:03;;;;;;;;;;;23.60;74.10;;;;;;4934965;29;19958;-48
2022/06/23 08:31:30;;;;;;;;;;;23.70;75.50;;;;;;4913914;29;20384;-45
2022/06/23 08:33:56;;;;;;;;;;;23.70;74.20;;;;;;4926890;29;20324;-44
2022/06/23 08:36:23;;;;;;;;;;;23.90;74.60;;;;;;4929326;29;20291;-48
2022/06/23 08:39:05;;;;;;;;;;;23.90;76.30;;;;;;4927897;29;19962;-49
2022/06/23 08:41:31;;;;;;;;;;;24.00;74.40;;;;;;4928706;29;20375;-46
2022/06/23 08:44:03;;;;;;;;;;;24.20;73.50;;;;;;4933892;29;20013;-49
2022/06/23 08:46:34;;;;;;;;;;;24.30;74.20;;;;;;4929494;29;20360;-47
2022/06/23 08:49:05;;;;;;;;;;;24.40;70.00;;;;;;4909641;29;19918;-51
2022/06/23 08:51:41;;;;;;;;;;;24.50;71.00;;;;;;4926074;29;20391;-47
2022/06/23 08:54:15;;;;;;;;;;;24.50;71.00;;;;;;4946185;28;19922;-46
2022/06/23 08:56:48;;;;;;;;;;;24.60;72.00;;;;;;4931475;29;20409;-43
2022/06/23 08:59:22;;;;;;;;;;;24.70;68.00;;;;;;4938027;29;19926;-49
2022/06/23 09:02:03;;;;;;;;;;;24.80;72.10;;;;;;4936602;29;19926;-48
2022/06/23 09:04:55;;;;;;;;;;;24.90;70.50;;;;;;4934600;29;22256;-50
2022/06/23 09:07:23;;;;;;;;;;;25.00;66.90;;;;;;4925244;29;20244;-47
2022/06/23 09:09:58;;;;;;;;;;;25.10;66.50;;;;;;4937003;29;20447;-50
2022/06/23 09:12:45;;;;;;;;;;;25.20;66.40;;;;;;4949382;28;19926;-43
2022/06/23 09:15:22;;;;;;;;;;;25.30;64.80;;;;;;4921729;29;19926;-46
2022/06/23 09:17:51;;;;;;;;;;;25.40;67.90;;;;;;4923262;29;19946;-48
2022/06/23 09:20:28;;;;;;;;;;;25.50;62.90;;;;;;4939873;29;19980;-47
2022/06/23 09:23:06;;;;;;;;;;;25.60;60.10;;;;;;4935105;29;19918;-50
2022/06/23 09:25:44;;;;;;;;;;;25.60;62.70;;;;;;4932468;29;19934;-50
2022/06/23 09:28:24;;;;;;;;;;;25.70;62.40;;;;;;4939410;29;20384;-46
2022/06/23 09:31:06;;;;;;;;;;;25.90;62.50;;;;;;4936475;29;19919;-50
2022/06/23 09:33:50;;;;;;;;;;;26.00;61.30;;;;;;4934651;29;19922;-48
2022/06/23 09:36:16;;;;;;;;;;;26.10;60.60;;;;;;4934195;29;20280;-48
2022/06/23 09:38:48;;;;;;;;;;;26.20;60.40;;;;;;4924785;29;20040;-44
2022/06/23 09:41:32;;;;;;;;;;;26.30;60.60;;;;;;4933576;29;19969;-46
2022/06/23 09:44:16;;;;;;;;;;;26.40;60.10;;;;;;4934003;29;20328;-46
2022/06/23 09:46:49;;;;;;;;;;;26.50;57.80;;;;;;4937186;29;20379;-50
2022/06/23 09:49:15;;;;;;;;;;;26.60;57.80;;;;;;4935422;29;20326;-50
2022/06/23 09:51:40;;;;;;;;;;;26.70;57.60;;;;;;4931550;29;19918;-44
2022/06/23 09:54:09;;;;;;;;;;;26.70;55.50;;;;;;4933195;29;19926;-49
2022/06/23 09:56:44;;;;;;;;;;;26.80;55.60;;;;;;4934663;29;20054;-47
2022/06/23 09:59:28;;;;;;;;;;;26.90;55.60;;;;;;4939832;29;19933;-50
2022/06/23 10:01:53;;;;;;;;;;;27.00;54.90;;;;;;4935559;29;19922;-50
2022/06/23 10:04:45;;;;;;;;;;;27.10;52.40;;;;;;4940720;29;19967;-49
2022/06/23 10:07:27;;;;;;;;;;;27.20;57.30;;;;;;4909273;29;19919;-51
2022/06/23 10:09:55;;;;;;;;;;;27.30;54.60;;;;;;4932276;29;19922;-48
2022/06/23 10:12:23;;;;;;;;;;;27.40;51.70;;;;;;4933431;29;19967;-48
2022/06/23 10:14:53;;;;;;;;;;;27.60;51.50;;;;;;4935359;29;20020;-50
2022/06/23 10:17:22;;;;;;;;;;;27.70;53.00;;;;;;4935247;29;19923;-49
2022/06/23 10:19:54;;;;;;;;;;;27.80;50.80;;;;;;4932544;29;19927;-49
2022/06/23 10:22:22;;;;;;;;;;;27.90;51.30;;;;;;4934959;29;20404;-49
2022/06/23 10:24:54;;;;;;;;;;;28.00;50.00;;;;;;4936074;29;20026;-48
2022/06/23 10:27:40;;;;;;;;;;;28.10;49.80;;;;;;4910284;29;19972;-48
2022/06/23 10:30:27;;;;;;;;;;;28.10;49.40;;;;;;4910643;29;19926;-47
2022/06/23 10:32:58;;;;;;;;;;;28.20;48.90;;;;;;4931775;29;19922;-49
2022/06/23 10:35:43;;;;;;;;;;;28.20;49.20;;;;;;4931527;29;19926;-47
2022/06/23 10:38:09;;;;;;;;;;;28.30;49.80;;;;;;4931191;29;19923;-47
2022/06/23 10:40:46;;;;;;;;;;;28.40;49.00;;;;;;4932772;29;19929;-49
2022/06/23 10:43:17;;;;;;;;;;;28.60;48.20;;;;;;4932697;29;19918;-51
2022/06/23 10:45:49;;;;;;;;;;;28.70;47.30;;;;;;4936595;29;20388;-47
2022/06/23 10:48:17;;;;;;;;;;;28.70;48.40;;;;;;4931781;29;19922;-48
2022/06/23 10:50:46;;;;;;;;;;;28.80;46.50;;;;;;4933138;29;19922;-49
2022/06/23 10:53:11;;;;;;;;;;;28.90;46.80;;;;;;4915682;29;19941;-47
2022/06/23 10:55:43;;;;;;;;;;;29.00;47.50;;;;;;4928112;29;20356;-50
2022/06/23 10:58:27;;;;;;;;;;;29.10;47.70;;;;;;4930629;29;20021;-49
2022/06/23 11:01:11;;;;;;;;;;;29.20;47.60;;;;;;4933743;29;20013;-48
2022/06/23 11:04:03;;;;;;;;;;;29.40;47.80;;;;;;4936207;29;19919;-47
2022/06/23 11:06:37;;;;;;;;;;;29.50;46.60;;;;;;4931596;29;19926;-47
2022/06/23 11:09:09;;;;;;;;;;;29.60;45.80;;;;;;4927443;29;19922;-48
2022/06/23 11:11:37;;;;;;;;;;;29.60;46.80;;;;;;4934328;29;19954;-47
2022/06/23 11:14:12;;;;;;;;;;;29.70;45.70;;;;;;4915511;29;19922;-44
2022/06/23 11:16:46;;;;;;;;;;;29.80;46.00;;;;;;4930228;29;19926;-47
2022/06/23 11:19:23;;;;;;;;;;;29.90;44.60;;;;;;4932581;29;19989;-50
2022/06/23 11:21:54;;;;;;;;;;;30.00;46.40;;;;;;4931943;29;19927;-46
2022/06/23 11:24:23;;;;;;;;;;;30.10;44.80;;;;;;4920964;29;19970;-46
2022/06/23 11:27:04;;;;;;;;;;;30.20;43.30;;;;;;4933922;29;20391;-47
2022/06/23 11:29:45;;;;;;;;;;;30.20;42.60;;;;;;4929676;29;19922;-47
2022/06/23 11:32:13;;;;;;;;;;;30.30;43.80;;;;;;4929302;29;19919;-49
2022/06/23 11:34:51;;;;;;;;;;;30.40;43.30;;;;;;4934510;29;20353;-49
2022/06/23 11:37:26;;;;;;;;;;;30.40;44.30;;;;;;4931408;29;19966;-50
2022/06/23 11:40:10;;;;;;;;;;;30.50;43.20;;;;;;4930483;29;19923;-48
2022/06/23 11:42:41;;;;;;;;;;;30.60;43.80;;;;;;4931699;29;19918;-45
2022/06/23 11:45:19;;;;;;;;;;;30.80;42.50;;;;;;4925867;29;20089;-50
2022/06/23 11:48:02;;;;;;;;;;;30.80;41.30;;;;;;4924197;29;19963;-46
2022/06/23 11:50:27;;;;;;;;;;;30.80;42.90;;;;;;4937823;29;19927;-47
2022/06/23 11:53:03;;;;;;;;;;;30.60;40.00;;;;;;4933168;29;20371;-47
2022/06/23 11:55:35;;;;;;;;;;;30.60;41.60;;;;;;4932840;29;19933;-47
2022/06/23 11:58:19;;;;;;;;;;;30.60;41.60;;;;;;4936459;29;20005;-49
2022/06/23 12:00:55;;;;;;;;;;;30.60;41.20;;;;;;4930811;29;19927;-46
2022/06/23 12:03:42;;;;;;;;;;;30.70;41.40;;;;;;4937134;29;19923;-49
2022/06/23 12:06:22;;;;;;;;;;;30.80;39.80;;;;;;4934056;29;20013;-47
2022/06/23 12:08:53;;;;;;;;;;;30.90;39.90;;;;;;4930798;29;19930;-43
2022/06/23 12:11:19;;;;;;;;;;;30.90;40.40;;;;;;4931450;29;20001;-46
2022/06/23 12:13:45;;;;;;;;;;;31.00;38.90;;;;;;4936294;29;20012;-48
2022/06/23 12:16:11;;;;;;;;;;;31.00;37.60;;;;;;4930362;29;20396;-46
2022/06/23 12:18:49;;;;;;;;;;;31.10;37.40;;;;;;4931177;29;20010;-50
2022/06/23 12:21:26;;;;;;;;;;;31.10;37.30;;;;;;4932330;29;19992;-50
2022/06/23 12:24:24;;;;;;;;;;;31.20;38.90;;;;;;4931058;29;19923;-47
2022/06/23 12:27:00;;;;;;;;;;;31.20;38.30;;;;;;4906855;29;19922;-45
2022/06/23 12:29:43;;;;;;;;;;;31.50;38.20;;;;;;4935565;29;19926;-44
2022/06/23 12:32:08;;;;;;;;;;;31.50;37.50;;;;;;4931627;29;20320;-45
2022/06/23 12:34:43;;;;;;;;;;;31.50;38.20;;;;;;4931528;29;19966;-45
2022/06/23 12:37:17;;;;;;;;;;;31.60;37.80;;;;;;4930069;29;19927;-48
2022/06/23 12:39:48;;;;;;;;;;;31.70;36.70;;;;;;4932662;29;20013;-49
2022/06/23 12:42:22;;;;;;;;;;;31.70;35.70;;;;;;4927627;29;20396;-47
2022/06/23 12:45:07;;;;;;;;;;;31.70;35.70;;;;;;4929995;29;19919;-44
2022/06/23 12:47:42;;;;;;;;;;;31.80;36.80;;;;;;4929934;29;19922;-50
2022/06/23 12:50:19;;;;;;;;;;;31.70;36.10;;;;;;4909390;29;20022;-46
2022/06/23 12:52:45;;;;;;;;;;;31.70;37.30;;;;;;4929492;29;19927;-47
2022/06/23 12:55:35;;;;;;;;;;;31.80;36.50;;;;;;4926089;29;19957;-46
2022/06/23 12:58:10;;;;;;;;;;;31.90;35.70;;;;;;4928247;29;20383;-50
2022/06/23 13:00:54;;;;;;;;;;;32.00;35.80;;;;;;4931971;29;21181;-50
2022/06/23 13:03:35;;;;;;;;;;;32.10;36.90;;;;;;4930551;29;20459;-45
2022/06/23 13:06:19;;;;;;;;;;;32.20;36.20;;;;;;4930669;29;19927;-50
2022/06/23 13:08:52;;;;;;;;;;;32.30;36.70;;;;;;4926189;29;20423;-47
2022/06/23 13:11:21;;;;;;;;;;;32.30;35.70;;;;;;4928194;29;19968;-45
2022/06/23 13:13:52;;;;;;;;;;;32.40;35.70;;;;;;4931601;29;20385;-49
2022/06/23 13:16:28;;;;;;;;;;;32.50;35.60;;;;;;4930552;29;20058;-51
2022/06/23 13:19:05;;;;;;;;;;;32.60;36.10;;;;;;4934464;29;20340;-50
2022/06/23 13:21:33;;;;;;;;;;;32.50;34.20;;;;;;4936940;29;19922;-46
2022/06/23 13:24:01;;;;;;;;;;;32.30;36.40;;;;;;4913274;29;20005;-49
2022/06/23 13:26:34;;;;;;;;;;;32.40;36.70;;;;;;4932216;29;19925;-43
2022/06/23 13:29:16;;;;;;;;;;;32.60;35.20;;;;;;4931973;29;19983;-45
2022/06/23 13:31:48;;;;;;;;;;;32.80;35.80;;;;;;4931457;29;19922;-50
2022/06/23 13:34:33;;;;;;;;;;;33.10;35.10;;;;;;4932831;29;19925;-45
2022/06/23 13:37:01;;;;;;;;;;;33.30;35.20;;;;;;4931763;29;20082;-47
2022/06/23 13:39:45;;;;;;;;;;;33.40;35.00;;;;;;4935406;29;19923;-49
2022/06/23 13:42:11;;;;;;;;;;;33.40;35.30;;;;;;4930550;29;20001;-48
2022/06/23 13:44:56;;;;;;;;;;;33.50;35.90;;;;;;4935235;29;20459;-49
2022/06/23 13:47:24;;;;;;;;;;;33.60;35.20;;;;;;4925953;29;19945;-48
2022/06/23 13:50:04;;;;;;;;;;;33.60;35.00;;;;;;4934837;29;19923;-50
2022/06/23 13:52:30;;;;;;;;;;;33.50;35.10;;;;;;4934937;29;19919;-44
2022/06/23 13:54:59;;;;;;;;;;;33.60;35.40;;;;;;4935556;29;19994;-45
2022/06/23 13:57:35;;;;;;;;;;;33.90;35.00;;;;;;4935831;29;19982;-47
2022/06/23 14:00:07;;;;;;;;;;;34.00;34.30;;;;;;4933868;29;20414;-45
2022/06/23 14:02:43;;;;;;;;;;;33.90;34.70;;;;;;4925943;29;20002;-48
2022/06/23 14:05:09;;;;;;;;;;;33.80;35.50;;;;;;4929654;29;19927;-47
2022/06/23 14:07:43;;;;;;;;;;;33.80;34.80;;;;;;4933742;29;19919;-45
2022/06/23 14:10:13;;;;;;;;;;;33.80;34.60;;;;;;4938386;29;19930;-49
2022/06/23 14:12:48;;;;;;;;;;;33.70;35.40;;;;;;4934735;29;19961;-48
2022/06/23 14:15:19;;;;;;;;;;;33.80;35.30;;;;;;4934188;29;19923;-45
2022/06/23 14:17:44;;;;;;;;;;;34.20;35.60;;;;;;4931934;29;19934;-46
2022/06/23 14:20:15;;;;;;;;;;;35.00;34.60;;;;;;4935760;29;19922;-44
2022/06/23 14:22:43;;;;;;;;;;;35.20;33.00;;;;;;4939098;29;20458;-49
2022/06/23 14:25:21;;;;;;;;;;;35.30;31.50;;;;;;4933707;29;19933;-48
2022/06/23 14:27:46;;;;;;;;;;;35.60;32.20;;;;;;4934798;29;20368;-49
2022/06/23 14:30:16;;;;;;;;;;;36.00;31.40;;;;;;4935181;29;20001;-45
2022/06/23 14:32:49;;;;;;;;;;;36.40;31.20;;;;;;4926977;29;19918;-44
2022/06/23 14:35:21;;;;;;;;;;;36.50;31.50;;;;;;4928106;29;19927;-45
2022/06/23 14:37:47;;;;;;;;;;;36.60;30.40;;;;;;4934567;29;19931;-47
2022/06/23 14:40:17;;;;;;;;;;;36.80;30.60;;;;;;4933763;29;19950;-49
2022/06/23 14:42:43;;;;;;;;;;;36.80;30.00;;;;;;4934168;29;19930;-46
2022/06/23 14:45:08;;;;;;;;;;;36.70;30.00;;;;;;4933595;29;19993;-44
2022/06/23 14:47:37;;;;;;;;;;;37.00;30.60;;;;;;4929338;29;19977;-43
2022/06/23 14:50:21;;;;;;;;;;;37.50;29.80;;;;;;4934752;29;19929;-45
2022/06/23 14:52:54;;;;;;;;;;;37.90;29.30;;;;;;4933565;29;19923;-48
2022/06/23 14:55:29;;;;;;;;;;;38.10;29.40;;;;;;4930986;29;19926;-50
2022/06/23 14:58:15;;;;;;;;;;;38.40;29.00;;;;;;4928952;29;20392;-47